Leander, Louisiana
Current Conditions -  °F | °C
As of 2:54 AM on Saturday 29 Nov 2014 (Local Time) from KBKB Reporting Station
Haze Haze  
Wind Chill: 58°   Ceiling: 200
Heat Index: 58°   Visibility: 4mi
Dew Point: 55°   Wind: 0mph
Humidity: 90%   Direction: NA
Pressure: 30.1"   Gusts: NA
Location:  31.0802°N, 92.7964°W
Report Text: KBKB 290854Z AUTO 00000KT 4SM BR OVC002 14/13 A3010 RMK AO2 SLP223 T01440128 58004 $
Loading
Personal Weather Stations






























Interactive Weather Map New forecast layout! Learn more

10-Day Weather Forecast

Advertisements
Track Severe Weather on mobile